createdAt,value
2022-09-12T00:02:30.535Z,99.90
2022-09-12T00:07:35.792Z,99.90
2022-09-12T00:12:39.512Z,99.90
2022-09-12T00:17:43.167Z,99.90
2022-09-12T00:22:48.314Z,99.90
2022-09-12T00:27:51.940Z,99.90
2022-09-12T00:32:55.812Z,99.90
2022-09-12T00:38:00.891Z,99.90
2022-09-12T00:43:04.677Z,99.90
2022-09-12T00:48:19.910Z,99.90
2022-09-12T00:53:25.280Z,99.90
2022-09-12T00:58:31.580Z,99.90
2022-09-12T01:03:35.634Z,99.90
2022-09-12T01:08:42.005Z,99.90
2022-09-12T01:13:46.633Z,99.90
2022-09-12T01:19:02.917Z,99.90
2022-09-12T01:24:41.475Z,99.90
2022-09-12T01:30:18.998Z,99.90
2022-09-12T01:35:28.452Z,99.90
2022-09-12T01:40:40.881Z,99.90
2022-09-12T01:45:48.206Z,99.90
2022-09-12T01:50:58.285Z,99.90
2022-09-12T01:56:07.100Z,99.90
2022-09-12T02:01:16.499Z,99.90
2022-09-12T02:06:26.489Z,99.90
2022-09-12T02:11:34.439Z,99.90
2022-09-12T02:16:43.237Z,99.90
2022-09-12T02:21:52.138Z,99.90
2022-09-12T02:26:59.431Z,99.90
2022-09-12T02:32:08.220Z,99.90
2022-09-12T02:37:25.972Z,99.90
2022-09-12T02:42:29.828Z,99.90
2022-09-12T02:47:39.441Z,99.90
2022-09-12T02:52:45.528Z,99.90
2022-09-12T02:57:49.279Z,99.90
2022-09-12T03:03:21.643Z,99.90
2022-09-12T03:08:54.998Z,99.90
2022-09-12T03:14:07.283Z,99.90
2022-09-12T03:19:20.429Z,99.90
2022-09-12T03:24:33.021Z,99.90
2022-09-12T03:29:37.885Z,99.90
2022-09-12T03:34:41.566Z,99.90
2022-09-12T03:39:46.606Z,99.90
2022-09-12T03:44:50.399Z,99.90
2022-09-12T03:49:54.120Z,99.90
2022-09-12T03:54:59.128Z,99.90
2022-09-12T04:00:03.071Z,99.90
2022-09-12T04:05:16.317Z,99.90
2022-09-12T04:10:21.473Z,99.90
2022-09-12T04:15:25.502Z,99.90
2022-09-12T04:20:29.175Z,99.90
2022-09-12T04:25:34.264Z,99.90
2022-09-12T04:30:38.003Z,99.90
2022-09-12T04:35:42.924Z,99.90
2022-09-12T04:40:47.918Z,99.90
2022-09-12T04:45:52.035Z,99.90
2022-09-12T04:50:55.760Z,99.90
2022-09-12T04:56:05.157Z,99.90
2022-09-12T05:01:10.669Z,99.90
2022-09-12T05:06:17.105Z,99.90
2022-09-12T05:11:28.212Z,99.90
2022-09-12T05:16:37.238Z,99.90
2022-09-12T05:21:40.853Z,99.90
2022-09-12T05:26:45.914Z,99.90
2022-09-12T05:31:52.030Z,99.90
2022-09-12T05:36:56.274Z,99.90
2022-09-12T05:42:01.389Z,99.90
2022-09-12T05:47:05.375Z,99.90
2022-09-12T05:52:09.321Z,99.90
2022-09-12T05:57:14.422Z,99.90
2022-09-12T06:02:18.386Z,99.90
2022-09-12T06:07:22.070Z,99.90
2022-09-12T06:12:27.750Z,99.90
2022-09-12T06:17:31.441Z,99.90
2022-09-12T06:22:35.077Z,99.90
2022-09-12T06:27:40.137Z,99.90
2022-09-12T06:32:44.237Z,99.90
2022-09-12T06:37:48.416Z,99.90
2022-09-12T06:42:54.637Z,99.90
2022-09-12T06:48:09.270Z,99.90
2022-09-12T06:53:13.211Z,99.90
2022-09-12T06:58:18.364Z,99.90
2022-09-12T07:03:22.195Z,99.90
2022-09-12T07:08:25.864Z,99.90
2022-09-12T07:13:30.895Z,99.90
2022-09-12T07:18:34.610Z,99.90
2022-09-12T07:23:40.027Z,99.90
2022-09-12T07:28:45.726Z,99.90
2022-09-12T07:33:54.380Z,99.90
2022-09-12T07:38:59.382Z,99.90
2022-09-12T07:44:06.740Z,99.90
2022-09-12T07:49:10.549Z,99.90
2022-09-12T07:54:14.220Z,99.90
2022-09-12T07:59:41.384Z,99.90
2022-09-12T08:04:43.229Z,99.90
2022-09-12T08:09:47.522Z,99.90
2022-09-12T08:14:52.715Z,99.90
2022-09-12T08:19:56.425Z,99.90
2022-09-12T08:25:00.137Z,99.90
2022-09-12T08:30:06.392Z,99.90
2022-09-12T08:35:10.321Z,99.90
2022-09-12T08:40:19.087Z,99.90
2022-09-12T08:45:32.780Z,99.90
2022-09-12T08:50:37.145Z,99.90
2022-09-12T08:55:44.553Z,99.90
2022-09-12T09:00:59.533Z,99.90
2022-09-12T09:06:10.893Z,99.90
2022-09-12T09:11:31.240Z,99.90
2022-09-12T09:16:39.371Z,99.90
2022-09-12T09:21:47.410Z,99.90
2022-09-12T09:26:56.533Z,99.90
2022-09-12T09:32:05.389Z,99.90
2022-09-12T09:37:18.183Z,98.80
2022-09-12T09:42:31.903Z,98.20
2022-09-12T09:47:36.962Z,97.30
2022-09-12T09:52:41.753Z,96.20
2022-09-12T09:57:47.134Z,96.20
2022-09-12T10:03:23.365Z,95.40
2022-09-12T10:08:28.817Z,93.70
2022-09-12T10:13:36.554Z,94.00
2022-09-12T10:18:43.846Z,92.40
2022-09-12T10:23:49.099Z,92.60
2022-09-12T10:28:55.962Z,91.30
2022-09-12T10:34:02.155Z,89.00
2022-09-12T10:39:07.077Z,90.00
2022-09-12T10:44:17.965Z,89.30
2022-09-12T10:49:29.010Z,88.40
2022-09-12T10:54:34.554Z,86.50
2022-09-12T10:59:50.823Z,86.90
2022-09-12T11:05:03.766Z,89.20
2022-09-12T11:10:22.816Z,85.10
2022-09-12T11:15:40.813Z,85.00
2022-09-12T11:21:11.242Z,84.00
2022-09-12T11:26:43.163Z,83.30
2022-09-12T11:32:13.878Z,81.80
2022-09-12T11:37:37.752Z,81.40
2022-09-12T11:42:42.413Z,82.60
2022-09-12T11:47:50.913Z,81.10
2022-09-12T11:52:58.969Z,81.10
2022-09-12T11:58:02.607Z,82.70
2022-09-12T12:03:15.689Z,82.10
2022-09-12T12:08:22.573Z,83.00
2022-09-12T12:13:30.824Z,83.60
2022-09-12T12:18:38.014Z,84.20
2022-09-12T12:24:04.927Z,83.90
2022-09-12T12:29:12.703Z,83.20
2022-09-12T12:34:29.716Z,83.60
2022-09-12T12:40:01.214Z,84.40
2022-09-12T12:45:45.526Z,84.80
2022-09-12T12:50:49.294Z,84.10
2022-09-12T12:55:55.167Z,84.60
2022-09-12T13:01:13.464Z,84.60
2022-09-12T13:06:31.523Z,84.70
2022-09-12T13:11:37.757Z,84.90
2022-09-12T13:16:56.342Z,84.50
2022-09-12T13:22:02.714Z,84.90
2022-09-12T13:27:18.504Z,84.70
2022-09-12T13:32:23.607Z,84.30
2022-09-12T13:37:39.553Z,83.90
2022-09-12T13:42:45.479Z,84.70
2022-09-12T13:47:56.603Z,85.20
2022-09-12T13:53:06.820Z,83.30
2022-09-12T13:58:20.390Z,84.00
2022-09-12T14:03:47.530Z,84.40
2022-09-12T14:08:51.954Z,83.60
2022-09-12T14:13:57.132Z,84.30
2022-09-12T14:19:02.884Z,84.30
2022-09-12T14:24:08.617Z,84.30
2022-09-12T14:29:17.140Z,84.60
2022-09-12T14:34:22.118Z,84.50
2022-09-12T14:39:30.689Z,84.90
2022-09-12T14:44:36.299Z,85.00
2022-09-12T14:49:42.108Z,84.50
2022-09-12T14:54:56.353Z,84.70
2022-09-12T15:00:17.851Z,85.60
2022-09-12T15:05:26.429Z,84.90
2022-09-12T15:10:33.059Z,84.40
2022-09-12T15:15:36.729Z,84.30
2022-09-12T15:20:43.291Z,83.90
2022-09-12T15:25:47.125Z,84.30
2022-09-12T15:30:53.961Z,84.50
2022-09-12T15:35:59.227Z,84.10
2022-09-12T15:41:02.895Z,83.90
2022-09-12T15:46:06.930Z,83.90
2022-09-12T15:51:15.600Z,84.10
2022-09-12T15:56:21.140Z,84.00
2022-09-12T16:01:24.950Z,83.90
2022-09-12T16:06:36.320Z,83.90
2022-09-12T16:11:41.433Z,83.80
2022-09-12T16:16:45.990Z,83.20
2022-09-12T16:21:51.190Z,82.80
2022-09-12T16:26:57.947Z,83.10
2022-09-12T16:32:05.161Z,83.20
2022-09-12T16:37:10.335Z,81.70
2022-09-12T16:42:13.929Z,82.70
2022-09-12T16:47:17.780Z,82.50
2022-09-12T16:52:22.873Z,82.20
2022-09-12T16:57:26.737Z,82.60
2022-09-12T17:02:30.424Z,82.60
2022-09-12T17:07:35.527Z,82.50
2022-09-12T17:12:39.267Z,82.80
2022-09-12T17:17:43.042Z,82.80
2022-09-12T17:22:48.064Z,83.00
2022-09-12T17:27:51.918Z,83.20
2022-09-12T17:32:55.745Z,83.60
2022-09-12T17:38:00.768Z,83.80
2022-09-12T17:43:04.715Z,84.30
2022-09-12T17:48:11.453Z,84.50
2022-09-12T17:53:16.253Z,84.90
2022-09-12T17:58:20.787Z,85.50
2022-09-12T18:03:25.587Z,85.80
2022-09-12T18:08:30.626Z,86.30
2022-09-12T18:13:34.476Z,86.80
2022-09-12T18:18:38.675Z,87.40
2022-09-12T18:23:43.678Z,88.00
2022-09-12T18:28:47.302Z,88.40
2022-09-12T18:33:51.571Z,89.00
2022-09-12T18:38:58.504Z,89.60
2022-09-12T18:44:03.180Z,89.90
2022-09-12T18:49:07.692Z,90.20
2022-09-12T18:54:15.466Z,90.30
2022-09-12T18:59:19.463Z,90.50
2022-09-12T19:04:23.256Z,90.70
2022-09-12T19:09:29.097Z,90.80
2022-09-12T19:14:32.897Z,91.10
2022-09-12T19:19:40.387Z,91.30
2022-09-12T19:24:45.660Z,91.50
2022-09-12T19:29:49.309Z,91.80
2022-09-12T19:34:52.951Z,92.00
2022-09-12T19:39:58.214Z,92.20
2022-09-12T19:45:01.983Z,92.50
2022-09-12T19:50:06.778Z,92.70
2022-09-12T19:55:12.058Z,92.90
2022-09-12T20:00:16.529Z,93.00
2022-09-12T20:05:20.558Z,93.20
2022-09-12T20:10:25.855Z,93.40
2022-09-12T20:15:29.486Z,93.60
2022-09-12T20:20:33.138Z,93.80
2022-09-12T20:25:38.634Z,93.90
2022-09-12T20:30:42.273Z,94.10
2022-09-12T20:35:45.953Z,94.20
2022-09-12T20:40:51.388Z,94.30
2022-09-12T20:45:55.039Z,94.60
2022-09-12T20:51:00.237Z,94.70
2022-09-12T20:56:06.992Z,94.80
2022-09-12T21:01:11.429Z,95.00
2022-09-12T21:06:17.437Z,95.50
2022-09-12T21:11:22.500Z,95.30
2022-09-12T21:16:26.268Z,95.40
2022-09-12T21:21:30.140Z,95.50
2022-09-12T21:26:35.266Z,95.50
2022-09-12T21:31:38.926Z,95.70
2022-09-12T21:36:42.683Z,95.80
2022-09-12T21:41:47.986Z,95.90
2022-09-12T21:46:51.801Z,96.10
2022-09-12T21:51:55.749Z,96.20
2022-09-12T21:57:01.655Z,96.30
2022-09-12T22:02:08.474Z,96.30
2022-09-12T22:07:12.598Z,96.40
2022-09-12T22:12:17.980Z,96.40
2022-09-12T22:17:22.350Z,96.60
2022-09-12T22:22:43.818Z,96.70
2022-09-12T22:27:51.835Z,96.70
2022-09-12T22:32:56.067Z,96.80
2022-09-12T22:38:00.001Z,96.80
2022-09-12T22:43:05.182Z,96.90
2022-09-12T22:48:09.409Z,96.80
2022-09-12T22:53:13.353Z,96.90
2022-09-12T22:58:18.513Z,96.80
2022-09-12T23:03:22.560Z,96.60
2022-09-12T23:08:29.560Z,96.60
2022-09-12T23:13:34.913Z,96.40
2022-09-12T23:18:38.834Z,96.40
2022-09-12T23:23:42.994Z,96.50
2022-09-12T23:28:52.851Z,96.60
2022-09-12T23:33:57.351Z,96.60
2022-09-12T23:39:01.051Z,96.60
2022-09-12T23:44:06.162Z,96.60
2022-09-12T23:49:10.030Z,96.80
2022-09-12T23:54:13.629Z,96.80
2022-09-12T23:59:18.624Z,96.80
